createdAt,value
2022-07-28T00:00:03.038Z,0
2022-07-28T00:05:02.933Z,0
2022-07-28T00:10:02.567Z,0
2022-07-28T00:15:03.298Z,0
2022-07-28T00:20:03.062Z,0
2022-07-28T00:25:02.943Z,0
2022-07-28T00:30:02.580Z,0
2022-07-28T00:35:04.024Z,0
2022-07-28T00:40:03.332Z,0
2022-07-28T00:45:03.065Z,0
2022-07-28T00:50:02.881Z,0
2022-07-28T00:55:04.669Z,0
2022-07-28T01:00:03.237Z,0
2022-07-28T01:05:03.029Z,0
2022-07-28T01:10:02.769Z,0
2022-07-28T01:15:03.120Z,0
2022-07-28T01:20:02.742Z,0
2022-07-28T01:25:03.479Z,0
2022-07-28T01:30:03.353Z,0
2022-07-28T01:35:06.146Z,0
2022-07-28T01:40:02.823Z,0
2022-07-28T01:45:02.787Z,0
2022-07-28T01:50:03.343Z,0
2022-07-28T01:55:04.416Z,0
2022-07-28T02:00:03.157Z,0
2022-07-28T02:05:03.358Z,0
2022-07-28T02:10:02.707Z,0
2022-07-28T02:15:03.542Z,0
2022-07-28T02:20:02.857Z,0
2022-07-28T02:25:02.919Z,0
2022-07-28T02:30:02.814Z,0
2022-07-28T02:35:02.607Z,0.23
2022-07-28T02:40:03.232Z,0.57
2022-07-28T02:45:03.133Z,1.25
2022-07-28T02:50:02.854Z,2.6
2022-07-28T02:55:03.910Z,5.32
2022-07-28T03:00:03.469Z,10.87
2022-07-28T03:05:12.307Z,10
2022-07-28T03:10:02.965Z,20
2022-07-28T03:15:02.855Z,36.67
2022-07-28T03:20:02.603Z,61.67
2022-07-28T03:25:06.434Z,98.33
2022-07-28T03:30:04.833Z,146.67
2022-07-28T03:35:02.893Z,208.33
2022-07-28T03:40:02.617Z,273.33
2022-07-28T03:45:03.428Z,355
2022-07-28T03:50:03.216Z,436.67
2022-07-28T03:55:04.223Z,531.67
2022-07-28T04:00:10.264Z,630
2022-07-28T04:05:02.889Z,721.67
2022-07-28T04:10:02.617Z,823.33
2022-07-28T04:15:03.453Z,918.33
2022-07-28T04:20:03.199Z,1015
2022-07-28T04:25:03.033Z,1115
2022-07-28T04:30:02.686Z,1218.33
2022-07-28T04:35:02.958Z,1428.33
2022-07-28T04:40:03.012Z,1548.33
2022-07-28T04:45:02.747Z,1673.33
2022-07-28T04:50:03.379Z,2090
2022-07-28T04:55:04.379Z,2758.33
2022-07-28T05:00:03.475Z,4233.33
2022-07-28T05:05:03.198Z,4853.33
2022-07-28T05:10:02.563Z,4935
2022-07-28T05:15:03.276Z,5893.33
2022-07-28T05:20:03.927Z,6466.67
2022-07-28T05:25:02.829Z,5153.33
2022-07-28T05:30:02.811Z,8690
2022-07-28T05:35:02.842Z,6840
2022-07-28T05:40:02.722Z,6170
2022-07-28T05:45:17.199Z,5725
2022-07-28T05:50:03.125Z,5616.67
2022-07-28T05:55:03.582Z,7271.67
2022-07-28T06:00:02.708Z,9246.67
2022-07-28T06:05:03.383Z,10101.67
2022-07-28T06:10:04.553Z,9266.67
2022-07-28T06:15:03.230Z,8790
2022-07-28T06:20:02.903Z,8063.33
2022-07-28T06:25:03.341Z,8683.33
2022-07-28T06:30:02.607Z,8893.33
2022-07-28T06:35:03.288Z,8543.33
2022-07-28T06:40:03.052Z,8080
2022-07-28T06:45:02.853Z,9083.33
2022-07-28T06:50:02.684Z,9171.67
2022-07-28T06:55:04.730Z,9391.67
2022-07-28T07:00:02.638Z,10715
2022-07-28T07:05:03.049Z,11403.33
2022-07-28T07:10:03.042Z,12036.67
2022-07-28T07:15:02.980Z,10645
2022-07-28T07:20:02.593Z,11711.67
2022-07-28T07:25:03.392Z,7971.67
2022-07-28T07:30:03.164Z,9256.67
2022-07-28T07:35:02.932Z,28330
2022-07-28T07:40:02.736Z,35003.33
2022-07-28T07:45:02.546Z,31046.67
2022-07-28T07:50:05.030Z,34930
2022-07-28T07:55:04.155Z,43750
2022-07-28T08:00:02.661Z,37990
2022-07-28T08:05:03.531Z,41693.33
2022-07-28T08:10:03.387Z,40333.33
2022-07-28T08:15:03.222Z,11703.33
2022-07-28T08:20:02.863Z,41166.67
2022-07-28T08:25:03.577Z,45740
2022-07-28T08:30:03.552Z,36383.33
2022-07-28T08:35:36.050Z,47280
2022-07-28T08:40:02.903Z,58959.06
2022-07-28T08:45:04.837Z,41626.67
2022-07-28T08:50:03.188Z,68712.5
2022-07-28T08:55:04.013Z,68049.45
2022-07-28T09:00:02.796Z,64213.12
2022-07-28T09:05:03.299Z,60224.06
2022-07-28T09:10:03.595Z,63203.28
2022-07-28T09:15:03.027Z,63975.94
2022-07-28T09:20:11.686Z,67045
2022-07-28T09:25:02.496Z,67968.59
2022-07-28T09:30:03.253Z,60836.8
2022-07-28T09:35:02.404Z,44003.33
2022-07-28T09:40:04.690Z,47066.67
2022-07-28T09:45:25.802Z,64290.39
2022-07-28T09:50:03.909Z,66815
2022-07-28T09:55:03.997Z,8615
2022-07-28T10:00:02.939Z,69531.88
2022-07-28T10:05:02.462Z,72018.75
2022-07-28T10:10:03.033Z,5358.33
2022-07-28T10:15:02.895Z,5805
2022-07-28T10:20:02.515Z,6883.33
2022-07-28T10:25:03.315Z,85346.17
2022-07-28T10:30:03.129Z,9770
2022-07-28T10:35:02.912Z,82113.59
2022-07-28T10:40:10.938Z,71256.88
2022-07-28T10:45:02.758Z,83601.41
2022-07-28T10:50:02.442Z,92594.77
2022-07-28T10:55:04.328Z,10436.67
2022-07-28T11:00:20.815Z,65758.44
2022-07-28T11:05:03.341Z,86108.05
2022-07-28T11:10:03.105Z,89856.33
2022-07-28T11:15:20.102Z,85340.78
2022-07-28T11:20:30.244Z,87022.66
2022-07-28T11:25:23.192Z,87428.75
2022-07-28T11:30:03.552Z,91464.53
2022-07-28T11:35:02.708Z,75434.61
2022-07-28T11:40:03.432Z,89105.23
2022-07-28T11:45:03.380Z,91534.61
2022-07-28T11:50:02.774Z,92107.81
2022-07-28T11:55:03.243Z,93496.8
2022-07-28T12:00:03.336Z,93728.59
2022-07-28T12:05:03.750Z,85996.64
2022-07-28T12:10:03.123Z,83033.59
2022-07-28T12:15:08.073Z,12123.33
2022-07-28T12:20:03.419Z,7505
2022-07-28T12:25:04.063Z,74949.45
2022-07-28T12:30:03.146Z,78775
2022-07-28T12:35:02.640Z,67149.22
2022-07-28T12:40:03.299Z,63807.03
2022-07-28T12:45:03.092Z,70475.23
2022-07-28T12:50:07.639Z,69571.41
2022-07-28T12:55:04.218Z,71325.16
2022-07-28T13:00:03.289Z,65576.95
2022-07-28T13:05:02.900Z,7016.67
2022-07-28T13:10:02.602Z,60743.36
2022-07-28T13:15:03.372Z,66405.31
2022-07-28T13:20:03.343Z,62304.84
2022-07-28T13:25:02.824Z,63045.16
2022-07-28T13:30:02.862Z,60791.87
2022-07-28T13:35:03.444Z,62173.67
2022-07-28T13:40:03.213Z,59911.41
2022-07-28T13:45:05.542Z,49830
2022-07-28T13:50:02.910Z,63100.86
2022-07-28T13:55:04.688Z,62772.03
2022-07-28T14:00:03.148Z,60376.8
2022-07-28T14:05:03.263Z,46793.33
2022-07-28T14:10:03.066Z,43746.67
2022-07-28T14:15:02.891Z,43953.33
2022-07-28T14:20:02.849Z,44106.67
2022-07-28T14:25:02.670Z,45646.67
2022-07-28T14:30:04.677Z,41923.33
2022-07-28T14:35:02.884Z,39190
2022-07-28T14:40:02.746Z,38936.67
2022-07-28T14:45:03.373Z,37043.33
2022-07-28T14:50:03.286Z,33053.33
2022-07-28T14:55:03.472Z,30576.67
2022-07-28T15:00:03.449Z,30330
2022-07-28T15:05:03.214Z,32716.67
2022-07-28T15:10:03.223Z,34130
2022-07-28T15:15:02.990Z,32986.67
2022-07-28T15:20:02.837Z,33373.33
2022-07-28T15:25:03.385Z,12590
2022-07-28T15:30:08.554Z,28793.33
2022-07-28T15:35:03.182Z,12731.67
2022-07-28T15:40:03.171Z,10658.33
2022-07-28T15:45:02.996Z,10135
2022-07-28T15:50:02.827Z,9746.67
2022-07-28T15:55:04.185Z,8056.67
2022-07-28T16:00:03.357Z,7836.67
2022-07-28T16:05:03.012Z,9115
2022-07-28T16:10:02.721Z,10226.67
2022-07-28T16:15:03.619Z,9105
2022-07-28T16:20:03.544Z,9600
2022-07-28T16:25:03.121Z,8178.33
2022-07-28T16:30:02.881Z,7950
2022-07-28T16:35:02.630Z,8495
2022-07-28T16:40:03.375Z,8275
2022-07-28T16:45:03.131Z,7810
2022-07-28T16:50:02.801Z,7466.67
2022-07-28T16:55:04.366Z,5711.67
2022-07-28T17:00:03.170Z,4071.67
2022-07-28T17:05:03.674Z,3718.33
2022-07-28T17:10:03.050Z,3431.67
2022-07-28T17:15:02.771Z,3600
2022-07-28T17:20:03.247Z,3310
2022-07-28T17:25:22.574Z,4035
2022-07-28T17:30:02.759Z,4065
2022-07-28T17:35:03.374Z,3148.33
2022-07-28T17:40:05.279Z,3436.67
2022-07-28T17:45:02.977Z,3508.33
2022-07-28T17:50:02.526Z,2695
2022-07-28T17:55:04.197Z,2726.67
2022-07-28T18:00:03.487Z,2356.67
2022-07-28T18:05:03.029Z,1935
2022-07-28T18:10:02.921Z,1590
2022-07-28T18:15:02.958Z,1358.33
2022-07-28T18:20:02.654Z,1145
2022-07-28T18:25:05.758Z,978.33
2022-07-28T18:30:03.266Z,853.33
2022-07-28T18:35:03.005Z,715
2022-07-28T18:40:02.702Z,575
2022-07-28T18:45:03.377Z,438.33
2022-07-28T18:50:04.385Z,333.33
2022-07-28T18:55:04.778Z,236.67
2022-07-28T19:00:02.862Z,170
2022-07-28T19:05:02.731Z,118.33
2022-07-28T19:10:03.400Z,83.33
2022-07-28T19:15:03.125Z,55
2022-07-28T19:20:02.704Z,18.33
2022-07-28T19:25:02.657Z,8.33
2022-07-28T19:30:03.546Z,10.41
2022-07-28T19:35:03.394Z,5.21
2022-07-28T19:40:03.188Z,2.6
2022-07-28T19:45:02.928Z,1.25
2022-07-28T19:50:02.657Z,0.57
2022-07-28T19:55:06.248Z,0.23
2022-07-28T20:00:03.238Z,0
2022-07-28T20:05:02.785Z,0
2022-07-28T20:10:02.540Z,0
2022-07-28T20:15:03.192Z,0
2022-07-28T20:20:02.905Z,0
2022-07-28T20:25:02.757Z,0
2022-07-28T20:30:03.504Z,0
2022-07-28T20:35:03.244Z,0
2022-07-28T20:40:02.970Z,0
2022-07-28T20:45:02.974Z,0
2022-07-28T20:50:02.766Z,0
2022-07-28T20:55:04.527Z,0
2022-07-28T21:00:03.296Z,0
2022-07-28T21:05:03.695Z,0
2022-07-28T21:10:03.036Z,0
2022-07-28T21:15:02.884Z,0
2022-07-28T21:20:03.667Z,0
2022-07-28T21:25:03.487Z,0
2022-07-28T21:30:03.369Z,0
2022-07-28T21:35:03.081Z,0
2022-07-28T21:40:02.380Z,0
2022-07-28T21:45:04.846Z,0
2022-07-28T21:50:03.010Z,0
2022-07-28T21:55:03.409Z,0
2022-07-28T22:00:03.364Z,0
2022-07-28T22:05:04.129Z,0
2022-07-28T22:10:03.060Z,0
2022-07-28T22:15:03.288Z,0
2022-07-28T22:20:03.472Z,0
2022-07-28T22:25:03.416Z,0
2022-07-28T22:30:03.433Z,0
2022-07-28T22:35:03.101Z,0
2022-07-28T22:40:02.852Z,0
2022-07-28T22:45:02.524Z,0
2022-07-28T22:50:03.312Z,0
2022-07-28T22:55:04.332Z,0
2022-07-28T23:00:02.668Z,0
2022-07-28T23:05:03.492Z,0
2022-07-28T23:10:03.095Z,0
2022-07-28T23:15:02.809Z,0
2022-07-28T23:20:02.618Z,0
2022-07-28T23:25:03.272Z,0
2022-07-28T23:30:03.123Z,0
2022-07-28T23:35:06.137Z,0
2022-07-28T23:40:03.131Z,0
2022-07-28T23:45:02.760Z,0
2022-07-28T23:50:03.313Z,0
2022-07-28T23:55:04.221Z,0
